Time;durP1;ratioP1;P1;durP2;ratioP2;P2;SDS_P1;SDS_P2;PMS_P1;PMS_P2;Temp;Humidity;BMP_temperature;BMP_pressure;BME280_temperature;BME280_humidity;BME280_pressure;Samples;Min_cycle;Max_cycle;Signal;HPM_P1;HPM_P2
2022/07/06 00:02:14;;;;;;;9.38;4.70;;;;;;;20.09;58.10;100693.06;5010899;28;20497;-85
2022/07/06 00:04:40;;;;;;;12.20;4.43;;;;;;;20.06;58.34;100698.97;5009596;28;20489;-86
2022/07/06 00:07:05;;;;;;;;;;;;;;;20.12;58.82;100701.66;5027625;28;20039;-86
2022/07/06 00:09:34;;;;;;;14.00;5.18;;;;;;;19.95;59.38;100695.91;5035513;28;20306;-86
2022/07/06 00:12:04;;;;;;;13.68;5.00;;;;;;;19.81;59.95;100691.63;4996107;28;20123;-85
2022/07/06 00:14:33;;;;;;;10.40;4.53;;;;;;;19.91;59.69;100697.41;4999385;28;20041;-86
2022/07/06 00:17:00;;;;;;;16.98;4.55;;;;;;;19.93;59.36;100692.56;5022066;28;20061;-86
2022/07/06 00:19:31;;;;;;;9.70;4.30;;;;;;;19.84;59.20;100691.19;4975353;28;20065;-86
2022/07/06 00:21:58;;;;;;;11.57;4.13;;;;;;;19.77;59.17;100695.84;5007184;28;20069;-86
2022/07/06 00:24:25;;;;;;;11.70;4.35;;;;;;;19.89;58.74;100704.16;4993380;28;20454;-86
2022/07/06 00:26:52;;;;;;;9.77;4.30;;;;;;;19.86;58.91;100704.59;5011904;28;20072;-87
2022/07/06 00:29:18;;;;;;;12.55;4.28;;;;;;;19.75;58.48;100697.94;5011371;28;20081;-86
2022/07/06 00:31:45;;;;;;;11.18;5.50;;;;;;;19.75;58.56;100703.41;5023962;28;20563;-87
2022/07/06 00:34:16;;;;;;;10.48;5.15;;;;;;;19.51;59.12;100700.38;4994708;28;20447;-86
2022/07/06 00:36:42;;;;;;;11.60;5.10;;;;;;;19.52;59.38;100693.84;5007584;28;20060;-86
2022/07/06 00:39:07;;;;;;;;;;;;;;;19.64;58.58;100704.91;4996420;28;20533;-85
2022/07/06 00:41:35;;;;;;;8.00;4.30;;;;;;;19.53;59.04;100683.81;5009338;28;20302;-85
2022/07/06 00:44:10;;;;;;;10.57;4.32;;;;;;;19.53;59.23;100695.56;5010065;28;20032;-87
2022/07/06 00:46:35;;;;;;;7.45;4.13;;;;;;;19.44;59.43;100683.22;5011649;28;20038;-85
2022/07/06 00:49:02;;;;;;;10.60;3.70;;;;;;;19.53;59.30;100667.44;4995424;28;20042;-85
2022/07/06 00:51:34;;;;;;;7.13;3.92;;;;;;;19.39;60.07;100664.81;5014079;28;20070;-88
2022/07/06 00:54:03;;;;;;;7.90;3.70;;;;;;;19.48;59.50;100680.88;4984791;28;20037;-85
2022/07/06 00:56:32;;;;;;;7.47;3.85;;;;;;;19.51;59.27;100675.84;5004796;28;20509;-86
2022/07/06 00:59:02;;;;;;;7.70;3.80;;;;;;;19.54;59.38;100675.41;5019769;28;20093;-87
2022/07/06 01:01:34;;;;;;;6.75;4.47;;;;;;;19.36;59.63;100653.47;5004273;28;20037;-87
2022/07/06 01:04:02;;;;;;;9.80;4.97;;;;;;;19.54;59.57;100674.56;5019874;28;20072;-86
2022/07/06 01:06:28;;;;;;;8.55;5.55;;;;;;;19.60;59.12;100669.06;5002998;28;20547;-87
2022/07/06 01:08:53;;;;;;;;;;;;;;;19.58;59.24;100671.19;4989041;28;20053;-86
2022/07/06 01:11:26;;;;;;;9.10;4.88;;;;;;;19.27;60.08;100652.94;5029867;28;19909;-86
2022/07/06 01:13:54;;;;;;;9.15;4.47;;;;;;;19.40;59.66;100662.91;4988831;28;20475;-85
2022/07/06 01:16:28;;;;;;;9.40;4.72;;;;;;;19.39;60.08;100650.34;4996947;28;20046;-87
2022/07/06 01:18:54;;;;;;;10.85;4.32;;;;;;;19.48;59.92;100669.97;5017097;28;20508;-87
2022/07/06 01:21:19;;;;;;;;;;;;;;;19.49;60.09;100667.03;5028913;28;20042;-85
2022/07/06 01:23:46;;;;;;;7.25;4.05;;;;;;;19.39;60.09;100651.16;5020637;28;20305;-86
2022/07/06 01:26:14;;;;;;;11.65;5.20;;;;;;;19.31;60.81;100653.31;5000450;28;20116;-85
2022/07/06 01:28:41;;;;;;;12.50;4.85;;;;;;;19.21;60.90;100650.22;5018901;28;20041;-87
2022/07/06 01:31:18;;;;;;;10.35;5.18;;;;;;;19.36;60.36;100653.47;5029234;28;20103;-86
2022/07/06 01:33:45;;;;;;;8.60;5.38;;;;;;;19.34;61.31;100669.25;5019738;28;20062;-85
2022/07/06 01:36:14;;;;;;;8.93;5.53;;;;;;;18.99;61.55;100634.22;5027176;28;20124;-84
2022/07/06 01:38:48;;;;;;;9.52;6.03;;;;;;;19.01;61.85;100651.19;4998793;28;20041;-84
2022/07/06 01:41:21;;;;;;;13.00;6.50;;;;;;;19.00;62.29;100641.31;4990755;28;20041;-85
2022/07/06 01:43:47;;;;;;;10.88;6.53;;;;;;;18.97;62.33;100655.38;5022117;28;20037;-86
2022/07/06 01:46:12;;;;;;;;;;;;;;;19.14;62.14;100664.72;4988682;28;20095;-84
2022/07/06 01:48:45;;;;;;;18.48;7.82;;;;;;;19.00;62.20;100641.31;5018831;28;19919;-84
2022/07/06 01:51:13;;;;;;;17.92;9.60;;;;;;;19.05;62.38;100655.13;5005380;28;20116;-85
2022/07/06 01:53:40;;;;;;;20.52;8.82;;;;;;;18.98;62.92;100657.03;5000433;28;20029;-87
2022/07/06 01:56:15;;;;;;;18.95;9.95;;;;;;;18.97;62.98;100658.09;5007664;28;20037;-87
2022/07/06 01:58:41;;;;;;;19.52;10.30;;;;;;;18.99;62.84;100666.91;4985276;28;20046;-85
2022/07/06 02:01:12;;;;;;;;;;;;;;;19.09;62.75;100664.53;5007939;28;20103;-86
2022/07/06 02:03:42;;;;;;;20.45;10.95;;;;;;;18.77;63.39;100648.09;5014957;28;19959;-86
2022/07/06 02:06:08;;;;;;;22.20;10.82;;;;;;;18.79;64.12;100671.59;5007474;28;20107;-87
2022/07/06 02:08:33;;;;;;;;;;;;;;;18.87;63.96;100666.75;5000351;28;20449;-82
2022/07/06 02:11:03;;;;;;;19.42;10.18;;;;;;;18.81;63.37;100644.97;5026107;28;19904;-84
2022/07/06 02:13:31;;;;;;;21.25;10.30;;;;;;;18.63;64.21;100651.91;5010318;28;20240;-84
2022/07/06 02:16:07;;;;;;;18.60;9.88;;;;;;;18.73;64.02;100655.03;5020234;28;20037;-85
2022/07/06 02:18:37;;;;;;;19.48;10.55;;;;;;;18.84;63.64;100663.59;5032347;28;20500;-85
2022/07/06 02:21:05;;;;;;;19.13;10.13;;;;;;;18.84;63.37;100647.25;5037278;28;20216;-85
2022/07/06 02:23:36;;;;;;;20.92;8.75;;;;;;;18.89;63.43;100655.63;5004350;28;20057;-84
2022/07/06 02:26:03;;;;;;;15.93;9.07;;;;;;;18.91;63.19;100664.41;5023531;28;20121;-85
2022/07/06 02:28:29;;;;;;;14.18;8.60;;;;;;;18.87;63.17;100646.81;5007075;28;20107;-86
2022/07/06 02:30:57;;;;;;;;;;;;;;;18.97;63.19;100666.28;4999478;28;20489;-86
2022/07/06 02:33:27;;;;;;;23.92;8.70;;;;;;;18.83;63.45;100645.59;5011154;28;19912;-86
2022/07/06 02:35:53;;;;;;;18.88;8.90;;;;;;;18.85;62.99;100643.50;5012006;28;20488;-85
2022/07/06 02:38:18;;;;;;;;;;;;;;;19.02;62.96;100655.56;5001433;28;20042;-86
2022/07/06 02:40:44;;;;;;;15.88;8.80;;;;;;;18.86;62.77;100623.38;5030274;28;19909;-85
2022/07/06 02:43:09;;;;;;;;;;;;;;;19.04;62.76;100650.75;5014932;28;20469;-86
2022/07/06 02:45:37;;;;;;;19.63;9.15;;;;;;;18.96;62.76;100643.66;5038009;28;19904;-86
2022/07/06 02:48:09;;;;;;;19.20;10.02;;;;;;;18.96;63.04;100640.06;5021556;28;20433;-86
2022/07/06 02:50:39;;;;;;;26.73;10.63;;;;;;;19.02;62.80;100644.66;5012247;28;20108;-86
2022/07/06 02:53:05;;;;;;;20.75;9.90;;;;;;;18.95;62.85;100624.78;5003118;28;20389;-86
2022/07/06 02:55:30;;;;;;;22.88;10.50;;;;;;;18.98;63.13;100624.34;5040010;28;20041;-86
2022/07/06 02:57:58;;;;;;;;;;;;;;;19.14;62.63;100642.91;5008279;28;20374;-85
2022/07/06 03:00:25;;;;;;;17.50;9.68;;;;;;;18.95;63.06;100622.91;5029860;28;19916;-86
2022/07/06 03:02:54;;;;;;;18.48;9.48;;;;;;;18.74;63.51;100615.84;5015593;28;20041;-85
2022/07/06 03:05:22;;;;;;;22.13;9.57;;;;;;;18.80;62.90;100613.31;5028178;28;20064;-85
2022/07/06 03:07:52;;;;;;;19.02;11.30;;;;;;;18.72;63.03;100617.94;5028473;28;20034;-85
2022/07/06 03:10:19;;;;;;;21.17;10.80;;;;;;;18.83;62.78;100618.38;5041009;28;20119;-86
2022/07/06 03:12:46;;;;;;;21.50;10.98;;;;;;;18.95;62.38;100630.25;5007575;28;20052;-85
2022/07/06 03:15:22;;;;;;;20.88;10.82;;;;;;;18.81;62.50;100615.84;5025769;28;20547;-86
2022/07/06 03:17:48;;;;;;;23.83;11.00;;;;;;;18.80;62.73;100611.47;5022967;28;20527;-87
2022/07/06 03:20:13;;;;;;;;;;;;;;;19.06;62.22;100642.31;5004725;28;20033;-86
2022/07/06 03:22:39;;;;;;;20.55;10.60;;;;;;;18.88;62.52;100618.53;5025947;28;19931;-86
2022/07/06 03:25:13;;;;;;;23.48;11.35;;;;;;;18.99;62.00;100620.59;5023326;28;20059;-85
2022/07/06 03:27:43;;;;;;;18.60;11.05;;;;;;;18.93;62.34;100618.72;5043821;28;20592;-86
2022/07/06 03:30:14;;;;;;;21.58;11.73;;;;;;;19.04;62.07;100626.22;5001174;28;20397;-86
2022/07/06 03:32:39;;;;;;;23.08;11.88;;;;;;;18.96;62.33;100621.00;5031337;28;20017;-86
2022/07/06 03:35:14;;;;;;;;;;;;;;;19.07;62.05;100644.84;5010034;28;20427;-86
2022/07/06 03:37:43;;;;;;;21.55;12.18;;;;;;;18.97;62.00;100619.97;4998204;28;19909;-86
2022/07/06 03:40:18;;;;;;;25.20;12.27;;;;;;;19.22;61.40;100643.72;5026737;28;20125;-86
2022/07/06 03:42:48;;;;;;;27.40;12.38;;;;;;;19.21;61.52;100621.09;5008644;28;20116;-87
2022/07/06 03:45:20;;;;;;;23.55;12.50;;;;;;;19.29;60.79;100619.97;4997782;28;20119;-87
2022/07/06 03:47:48;;;;;;;25.83;13.18;;;;;;;19.46;60.62;100640.22;5011914;28;20131;-86
2022/07/06 03:50:14;;;;;;;27.60;14.43;;;;;;;19.42;60.63;100621.81;5029653;28;20497;-86
2022/07/06 03:52:39;;;;;;;;;;;;;;;19.58;60.58;100646.63;4993373;28;20072;-87
2022/07/06 03:55:30;;;;;;;36.92;21.33;;;;;;;19.57;59.90;100625.88;5024472;28;19917;-84
2022/07/06 03:57:58;;;;;;;29.60;19.58;;;;;;;19.45;59.87;100629.53;4991967;28;20046;-84
2022/07/06 04:00:25;;;;;;;29.40;16.27;;;;;;;19.53;59.90;100635.56;5027453;28;20084;-82
2022/07/06 04:03:12;;;;;;;27.75;14.43;;;;;;;19.65;59.72;100640.31;5009566;28;20186;-81
2022/07/06 04:05:39;;;;;;;25.48;12.85;;;;;;;19.67;58.88;100624.56;5028641;28;20041;-80
2022/07/06 04:08:09;;;;;;;27.20;12.95;;;;;;;19.97;58.56;100641.97;5005035;28;20038;-81
2022/07/06 04:10:39;;;;;;;23.00;12.25;;;;;;;20.05;57.76;100618.19;5033455;28;20034;-80
2022/07/06 04:13:07;;;;;;;23.83;12.52;;;;;;;20.25;57.06;100632.44;5025170;28;20029;-83
2022/07/06 04:15:32;;;;;;;24.33;12.13;;;;;;;20.62;56.18;100641.53;5019131;28;20049;-83
2022/07/06 04:17:59;;;;;;;25.00;12.68;;;;;;;20.83;56.00;100642.13;5018452;28;20041;-80
2022/07/06 04:20:25;;;;;;;26.83;12.30;;;;;;;20.95;54.78;100631.25;4997893;28;20440;-82
2022/07/06 04:22:52;;;;;;;17.23;11.07;;;;;;;21.19;53.52;100638.50;4997259;28;20025;-82
2022/07/06 04:25:17;;;;;;;26.38;11.77;;;;;;;21.35;53.78;100631.53;5022895;28;20099;-81
2022/07/06 04:27:43;;;;;;;25.45;12.23;;;;;;;21.69;52.71;100632.72;5012704;28;20034;-84
2022/07/06 04:30:09;;;;;;;23.80;11.38;;;;;;;21.91;52.03;100640.38;4987588;28;20158;-84
2022/07/06 04:32:35;;;;;;;24.33;11.25;;;;;;;22.15;51.65;100627.56;4997029;28;20597;-82
2022/07/06 04:35:03;;;;;;;27.40;11.63;;;;;;;22.27;51.00;100620.19;5029789;28;20051;-82
2022/07/06 04:37:30;;;;;;;24.30;11.07;;;;;;;22.64;50.63;100635.47;5016614;28;20454;-82
2022/07/06 04:39:57;;;;;;;27.48;11.65;;;;;;;22.84;49.11;100627.69;4996660;28;20092;-83
2022/07/06 04:42:25;;;;;;;26.75;11.93;;;;;;;23.03;48.85;100633.03;5011162;28;20161;-84
2022/07/06 04:44:51;;;;;;;29.00;10.82;;;;;;;23.06;48.41;100630.66;5035103;28;20051;-82
2022/07/06 04:47:20;;;;;;;26.70;11.25;;;;;;;23.13;48.15;100631.31;5000664;28;20378;-83
2022/07/06 04:49:46;;;;;;;21.20;11.93;;;;;;;23.15;48.24;100640.13;5031314;28;20044;-86
2022/07/06 04:52:18;;;;;;;27.85;11.77;;;;;;;23.34;48.04;100637.16;5005587;28;20060;-84
2022/07/06 04:54:45;;;;;;;23.50;11.35;;;;;;;23.46;47.56;100643.44;5034051;28;20037;-88
2022/07/06 04:57:13;;;;;;;20.85;11.00;;;;;;;23.57;47.43;100636.22;5051244;28;20057;-92
2022/07/06 04:59:43;;;;;;;24.33;10.63;;;;;;;23.71;46.31;100639.47;5021980;28;20581;-90
2022/07/06 05:02:10;;;;;;;22.60;9.85;;;;;;;23.78;46.32;100640.19;5002892;28;20128;-92
2022/07/06 05:04:40;;;;;;;29.08;10.65;;;;;;;23.94;45.98;100625.63;5001010;28;20162;-88
2022/07/06 05:07:06;;;;;;;24.65;10.60;;;;;;;24.10;46.20;100612.97;5046901;28;20037;-90
2022/07/06 05:09:34;;;;;;;27.63;10.43;;;;;;;24.46;46.04;100629.94;5011736;28;20041;-90
2022/07/06 05:12:02;;;;;;;27.05;11.40;;;;;;;24.75;45.30;100646.31;5027924;28;20049;-90
2022/07/06 05:14:29;;;;;;;19.25;10.82;;;;;;;25.03;44.94;100631.53;5012073;28;20455;-91
2022/07/06 05:16:55;;;;;;;19.70;9.75;;;;;;;25.23;42.52;100629.00;5019645;28;20046;-90
2022/07/06 05:19:24;;;;;;;19.33;9.38;;;;;;;25.27;41.73;100637.59;5010387;28;20052;-92
2022/07/06 05:21:53;;;;;;;19.05;9.05;;;;;;;25.34;41.43;100621.69;5030404;28;20037;-92
2022/07/06 05:24:41;;;;;;;16.75;9.32;;;;;;;25.38;42.23;100639.34;5026097;28;20129;-90
2022/07/06 05:27:09;;;;;;;30.15;11.63;;;;;;;25.62;41.78;100634.34;5013262;28;20037;-90
2022/07/06 05:29:36;;;;;;;23.77;10.05;;;;;;;25.60;42.24;100630.19;5015887;28;20037;-91
2022/07/06 05:32:05;;;;;;;36.17;10.50;;;;;;;25.92;41.63;100644.00;5010868;28;20066;-89
2022/07/06 05:34:37;;;;;;;32.33;10.63;;;;;;;26.02;41.32;100610.19;4988942;28;20041;-91
2022/07/06 05:37:04;;;;;;;24.90;9.90;;;;;;;26.09;41.10;100627.31;5023446;28;20034;-90
2022/07/06 05:39:30;;;;;;;27.85;9.73;;;;;;;26.39;40.93;100642.38;5014255;28;20129;-89
2022/07/06 05:41:56;;;;;;;21.55;9.90;;;;;;;26.46;41.50;100629.19;4984285;28;20045;-90
2022/07/06 05:44:25;;;;;;;25.92;11.60;;;;;;;26.49;40.99;100631.41;4996648;28;20124;-90
2022/07/06 05:50:11;;;;;;;24.58;9.93;;;;;;;26.41;40.79;100612.59;5037117;28;20500;-90
2022/07/06 05:52:28;;;;;;;27.40;9.23;;;;;;;26.87;39.62;100616.41;5014268;28;20060;-90
2022/07/06 05:54:57;;;;;;;31.80;9.23;;;;;;;27.37;39.12;100633.44;5014933;28;20075;-89
2022/07/06 05:57:25;;;;;;;31.38;9.57;;;;;;;27.47;38.44;100614.09;5025706;28;20041;-89
2022/07/06 05:59:50;;;;;;;27.52;11.00;;;;;;;27.55;38.78;100618.25;5024171;28;20037;-86
2022/07/06 06:02:26;;;;;;;26.50;12.25;;;;;;;27.76;38.04;100613.53;4994433;28;20061;-88
2022/07/06 06:04:54;;;;;;;54.00;14.90;;;;;;;27.79;37.96;100624.03;5018228;28;20097;-89
2022/07/06 06:07:24;;;;;;;28.77;14.57;;;;;;;28.10;37.55;100630.41;5040639;28;20045;-91
2022/07/06 06:09:54;;;;;;;35.53;16.50;;;;;;;27.93;38.28;100614.13;5009500;28;20059;-89
2022/07/06 06:12:20;;;;;;;37.33;16.25;;;;;;;28.17;38.19;100613.53;5034001;28;20041;-89
2022/07/06 06:14:54;;;;;;;38.38;16.55;;;;;;;28.20;38.15;100615.75;5029971;28;20108;-89
2022/07/06 06:17:26;;;;;;;39.17;15.82;;;;;;;28.63;37.91;100616.19;5037200;28;20471;-88
2022/07/06 06:20:00;;;;;;;40.95;13.93;;;;;;;28.81;37.78;100615.53;5026275;28;20537;-86
2022/07/06 06:22:26;;;;;;;30.80;13.73;;;;;;;28.76;37.82;100610.03;5024096;28;20037;-85
2022/07/06 06:24:53;;;;;;;22.70;13.18;;;;;;;28.91;37.97;100611.06;5026779;28;20223;-85
2022/07/06 06:27:20;;;;;;;23.58;12.30;;;;;;;28.99;37.27;100604.97;5013791;28;20057;-87
2022/07/06 06:29:58;;;;;;;21.52;12.52;;;;;;;29.28;36.75;100599.53;5001329;28;20045;-86
2022/07/06 06:32:41;;;;;;;25.13;11.63;;;;;;;29.43;37.10;100607.75;5032273;28;20049;-85
2022/07/06 06:35:09;;;;;;;27.13;11.82;;;;;;;29.56;36.33;100602.66;5015099;28;20037;-88
2022/07/06 06:37:34;;;;;;;24.52;11.10;;;;;;;29.89;35.61;100617.63;4999028;28;20053;-87
2022/07/06 06:40:08;;;;;;;21.80;10.85;;;;;;;30.12;35.53;100615.19;5014345;28;20115;-86
2022/07/06 06:42:39;;;;;;;26.00;10.53;;;;;;;30.13;35.41;100608.53;5015723;28;20042;-86
2022/07/06 06:45:10;;;;;;;28.20;11.57;;;;;;;30.39;35.03;100604.41;5011397;28;20073;-87
2022/07/06 06:47:38;;;;;;;22.55;10.05;;;;;;;30.74;34.67;100599.50;5029616;28;20040;-87
2022/07/06 06:50:06;;;;;;;23.85;10.73;;;;;;;30.98;34.25;100607.00;5037017;28;20094;-87
2022/07/06 06:52:32;;;;;;;24.55;10.90;;;;;;;31.10;33.86;100612.94;5016118;28;20030;-87
2022/07/06 06:54:59;;;;;;;21.50;10.00;;;;;;;31.15;33.47;100598.97;5046079;28;20037;-86
2022/07/06 06:57:26;;;;;;;20.92;10.27;;;;;;;31.33;32.63;100603.69;4999934;28;20049;-89
2022/07/06 06:59:56;;;;;;;18.05;10.00;;;;;;;31.51;32.16;100606.78;5005131;28;20041;-93
2022/07/06 07:02:23;;;;;;;24.15;10.57;;;;;;;31.72;31.36;100613.63;5021056;28;20118;-92
2022/07/06 07:04:48;;;;;;;23.13;10.60;;;;;;;31.82;31.33;100606.25;4993002;28;20524;-85
2022/07/06 07:07:15;;;;;;;29.35;10.13;;;;;;;31.76;30.80;100602.75;4985067;28;20026;-90
2022/07/06 07:09:43;;;;;;;26.50;10.40;;;;;;;31.74;31.05;100607.78;5011673;28;20072;-87
2022/07/06 07:12:11;;;;;;;29.48;10.38;;;;;;;31.98;30.76;100610.44;5031810;28;20394;-84
2022/07/06 07:14:39;;;;;;;22.60;9.48;;;;;;;32.07;30.81;100597.47;5037767;28;20048;-85
2022/07/06 07:17:07;;;;;;;21.10;9.70;;;;;;;32.26;30.68;100610.47;5018906;28;20046;-88
2022/07/06 07:19:33;;;;;;;26.98;10.20;;;;;;;32.43;29.45;100616.28;5012340;28;20402;-84
2022/07/06 07:22:00;;;;;;;27.20;10.02;;;;;;;32.47;29.60;100606.16;5007348;28;20043;-85
2022/07/06 07:24:26;;;;;;;24.27;9.18;;;;;;;32.76;28.74;100622.56;4998238;28;20033;-86
2022/07/06 07:26:55;;;;;;;20.13;8.85;;;;;;;32.81;28.05;100604.94;5012549;28;20029;-85
2022/07/06 07:29:21;;;;;;;22.30;8.60;;;;;;;32.99;27.87;100620.69;5025603;28;20205;-84
2022/07/06 07:31:47;;;;;;;17.15;9.02;;;;;;;33.08;28.18;100611.59;5029047;28;20104;-85
2022/07/06 07:34:14;;;;;;;19.67;8.80;;;;;;;33.17;27.68;100623.63;4994815;28;20498;-84
2022/07/06 07:36:45;;;;;;;15.43;7.00;;;;;;;33.10;27.45;100618.50;5020514;28;20099;-84
2022/07/06 07:39:13;;;;;;;12.32;7.00;;;;;;;33.16;27.72;100624.78;5009522;28;20058;-85
2022/07/06 07:41:39;;;;;;;16.13;5.30;;;;;;;33.48;25.62;100617.34;5012779;28;20117;-85
2022/07/06 07:44:06;;;;;;;9.25;5.40;;;;;;;33.72;24.70;100617.88;5013890;28;20502;-82
2022/07/06 07:46:31;;;;;;;13.02;5.80;;;;;;;33.55;25.00;100603.78;5006612;28;20177;-86
2022/07/06 07:49:00;;;;;;;11.40;5.65;;;;;;;33.50;25.27;100615.06;5010475;28;20132;-86
2022/07/06 07:51:26;;;;;;;8.95;5.50;;;;;;;33.35;25.96;100614.28;4992275;28;20065;-85
2022/07/06 07:53:54;;;;;;;12.20;6.97;;;;;;;33.71;25.59;100605.06;5011331;28;20045;-87
2022/07/06 07:56:25;;;;;;;11.65;5.60;;;;;;;33.96;25.30;100595.22;5020714;28;20037;-87
2022/07/06 07:58:55;;;;;;;9.77;4.80;;;;;;;33.84;25.09;100609.75;5008068;28;20049;-84
2022/07/06 08:01:23;;;;;;;8.63;4.57;;;;;;;33.77;24.18;100614.13;5019475;28;20041;-83
2022/07/06 08:03:53;;;;;;;9.88;4.20;;;;;;;33.64;24.55;100615.84;4997680;28;20137;-84
2022/07/06 08:06:19;;;;;;;10.13;4.78;;;;;;;33.48;24.54;100617.34;5024915;28;20057;-87
2022/07/06 08:08:45;;;;;;;7.35;4.65;;;;;;;33.55;23.94;100606.56;5019378;28;20226;-85
2022/07/06 08:11:13;;;;;;;10.23;4.90;;;;;;;33.48;24.63;100620.94;5022595;28;20041;-85
2022/07/06 08:13:40;;;;;;;11.77;4.55;;;;;;;33.70;24.83;100611.78;5034768;28;20037;-86
2022/07/06 08:16:06;;;;;;;8.88;4.70;;;;;;;33.52;25.00;100624.75;5024813;28;20038;-85
2022/07/06 08:18:35;;;;;;;13.27;4.60;;;;;;;33.31;25.04;100612.47;4980353;28;20046;-82
2022/07/06 08:21:01;;;;;;;9.13;4.38;;;;;;;33.48;25.00;100626.50;5020366;28;20045;-85
2022/07/06 08:23:27;;;;;;;10.43;4.15;;;;;;;33.49;24.34;100628.19;5024198;28;20040;-84
2022/07/06 08:25:55;;;;;;;9.48;3.60;;;;;;;33.32;24.47;100608.50;5024938;28;20076;-84
2022/07/06 08:28:21;;;;;;;7.55;3.75;;;;;;;33.30;24.18;100628.34;5019335;28;20037;-86
2022/07/06 08:30:47;;;;;;;5.57;3.55;;;;;;;33.34;24.02;100621.03;5025853;28;20119;-88
2022/07/06 08:33:13;;;;;;;5.93;3.05;;;;;;;33.70;23.42;100620.16;4986012;28;20033;-82
2022/07/06 08:35:39;;;;;;;7.63;3.50;;;;;;;34.02;24.83;100632.16;5021489;28;20466;-85
2022/07/06 08:38:07;;;;;;;8.73;3.22;;;;;;;33.92;23.66;100621.28;4996429;28;20085;-86
2022/07/06 08:40:34;;;;;;;7.10;3.78;;;;;;;33.70;26.09;100600.66;5016064;28;20092;-84
2022/07/06 08:43:01;;;;;;;8.32;3.72;;;;;;;34.51;25.15;100627.47;5007017;28;20046;-86
2022/07/06 08:45:27;;;;;;;7.85;3.72;;;;;;;35.00;25.37;100628.28;5015273;28;20077;-84
2022/07/06 08:47:54;;;;;;;7.55;3.20;;;;;;;34.76;24.26;100631.53;4997323;28;20139;-84
2022/07/06 08:50:20;;;;;;;6.78;3.80;;;;;;;35.09;24.90;100620.72;4997036;28;20041;-83
2022/07/06 08:52:49;;;;;;;6.82;3.55;;;;;;;35.01;24.90;100623.53;5002851;28;20065;-86
2022/07/06 08:55:15;;;;;;;7.35;3.40;;;;;;;35.20;23.86;100626.03;4999003;28;20034;-84
2022/07/06 08:57:46;;;;;;;6.10;3.30;;;;;;;35.26;23.29;100619.97;4989530;28;20060;-85
2022/07/06 09:00:15;;;;;;;9.70;3.95;;;;;;;35.71;23.55;100624.41;5015230;28;20026;-85
2022/07/06 09:02:41;;;;;;;8.10;3.95;;;;;;;35.33;24.06;100629.81;5014892;28;20052;-84
2022/07/06 09:05:11;;;;;;;7.70;3.45;;;;;;;35.91;23.12;100623.66;5018275;28;20488;-85
2022/07/06 09:07:37;;;;;;;5.93;3.40;;;;;;;35.61;22.90;100616.34;5013628;28;20131;-85
2022/07/06 09:10:05;;;;;;;5.55;3.58;;;;;;;36.37;22.68;100621.25;5011958;28;20131;-85
2022/07/06 09:12:33;;;;;;;6.60;3.50;;;;;;;36.58;21.61;100615.75;5013700;28;20033;-85
2022/07/06 09:15:00;;;;;;;6.05;3.22;;;;;;;37.10;20.70;100617.41;5014779;28;20040;-82
2022/07/06 09:17:39;;;;;;;7.45;3.60;;;;;;;36.81;21.05;100616.25;5028608;28;20042;-82
2022/07/06 09:20:10;;;;;;;8.75;3.70;;;;;;;37.06;21.73;100594.84;4993640;28;20045;-83
2022/07/06 09:22:35;;;;;;;6.05;3.50;;;;;;;37.09;21.22;100610.13;5007492;28;20042;-84
2022/07/06 09:25:05;;;;;;;10.70;3.65;;;;;;;36.61;22.33;100595.44;5013547;28;20026;-84
2022/07/06 09:27:31;;;;;;;8.02;3.72;;;;;;;36.88;22.46;100604.53;5021410;28;20108;-83
2022/07/06 09:30:23;;;;;;;11.32;4.20;;;;;;;37.22;22.42;100608.25;5018928;28;20029;-84
2022/07/06 09:32:53;;;;;;;6.60;3.60;;;;;;;37.45;21.43;100603.09;5027707;28;20463;-87
2022/07/06 09:35:29;;;;;;;11.43;5.90;;;;;;;37.75;20.13;100601.81;5004246;28;20103;-85
2022/07/06 09:38:05;;;;;;;7.78;3.65;;;;;;;37.16;21.42;100611.25;5003643;28;20056;-84
2022/07/06 09:40:36;;;;;;;6.68;3.22;;;;;;;37.05;21.68;100610.00;5027114;28;20044;-84
2022/07/06 09:43:26;;;;;;;4.95;3.22;;;;;;;37.51;21.06;100599.72;5029061;28;20033;-85
2022/07/06 09:45:54;;;;;;;7.57;3.53;;;;;;;37.93;20.48;100602.44;5015828;28;20042;-87
2022/07/06 09:48:23;;;;;;;7.25;3.70;;;;;;;39.17;18.92;100592.00;5006692;28;20602;-86
2022/07/06 09:50:55;;;;;;;7.85;4.00;;;;;;;38.69;19.23;100590.94;5005430;28;20068;-86
2022/07/06 09:53:25;;;;;;;4.72;3.50;;;;;;;38.88;18.93;100598.75;5024960;28;20042;-85
2022/07/06 09:55:52;;;;;;;7.35;3.70;;;;;;;39.25;18.49;100591.88;5011457;28;20042;-84
2022/07/06 09:58:18;;;;;;;6.35;3.35;;;;;;;39.22;19.13;100598.22;5011159;28;20073;-85
2022/07/06 10:00:44;;;;;;;7.30;3.45;;;;;;;39.69;18.62;100585.50;5007600;28;20042;-86
2022/07/06 10:03:10;;;;;;;8.20;3.63;;;;;;;40.34;16.75;100590.81;5006940;28;20033;-85
2022/07/06 10:05:43;;;;;;;9.35;3.70;;;;;;;40.22;17.59;100590.88;5007839;28;20505;-86
2022/07/06 10:08:09;;;;;;;11.70;4.00;;;;;;;39.84;18.20;100586.72;5009331;28;20501;-85
2022/07/06 10:10:39;;;;;;;6.57;3.65;;;;;;;39.34;19.11;100571.22;4998682;28;20128;-86
2022/07/06 10:13:07;;;;;;;6.68;3.65;;;;;;;40.72;17.78;100566.78;4990008;28;20056;-85
2022/07/06 10:15:33;;;;;;;7.18;3.22;;;;;;;40.05;18.16;100581.63;5006751;28;20409;-87
2022/07/06 10:18:02;;;;;;;9.48;3.38;;;;;;;40.65;16.31;100573.06;5005965;28;20224;-87
2022/07/06 10:20:41;;;;;;;6.97;3.22;;;;;;;41.10;16.37;100577.28;4989842;28;20050;-88
2022/07/06 10:23:08;;;;;;;10.40;3.20;;;;;;;41.21;15.46;100585.16;5016376;28;20037;-87
2022/07/06 10:25:37;;;;;;;11.40;3.28;;;;;;;41.54;15.55;100576.19;5011720;28;20100;-87
2022/07/06 10:28:13;;;;;;;8.25;3.33;;;;;;;40.75;16.63;100576.50;5024550;28;20041;-88
2022/07/06 10:30:39;;;;;;;9.48;3.10;;;;;;;41.52;15.80;100584.19;5014443;28;20096;-88
2022/07/06 10:33:05;;;;;;;10.95;3.03;;;;;;;41.22;15.57;100579.16;4995549;28;20041;-89
2022/07/06 10:35:43;;;;;;;9.57;3.03;;;;;;;40.51;16.15;100581.97;4999727;28;20049;-88
2022/07/06 10:38:10;;;;;;;8.55;3.53;;;;;;;40.00;17.65;100583.91;5015874;28;20046;-87
2022/07/06 10:43:42;;;;;;;5.32;3.15;;;;;;;39.64;17.11;100572.50;5010807;28;20123;-90
2022/07/06 10:46:16;;;;;;;5.47;2.97;;;;;;;38.77;18.72;100585.19;5015848;28;20048;-86
2022/07/06 10:48:49;;;;;;;11.55;3.42;;;;;;;37.83;19.28;100566.41;5013671;28;20045;-90
2022/07/06 10:51:23;;;;;;;4.00;3.15;;;;;;;37.38;19.77;100556.00;5021485;28;20450;-89
2022/07/06 10:53:58;;;;;;;11.65;3.55;;;;;;;37.14;20.48;100563.13;4997669;28;20034;-86
2022/07/06 10:56:53;;;;;;;7.78;3.78;;;;;;;36.86;21.43;100573.22;5028921;28;20040;-88
2022/07/06 10:59:23;;;;;;;8.55;3.58;;;;;;;35.91;22.67;100561.31;5014737;28;20050;-88
2022/07/06 11:02:18;;;;;;;6.50;3.42;;;;;;;35.69;22.61;100565.19;5022517;28;20034;-86
2022/07/06 11:04:45;;;;;;;5.97;3.40;;;;;;;35.56;22.92;100552.19;5007142;28;20064;-88
2022/07/06 11:07:15;;;;;;;7.97;3.40;;;;;;;35.81;24.12;100561.69;5018914;28;20565;-87
2022/07/06 11:09:47;;;;;;;7.53;3.40;;;;;;;35.49;24.76;100556.31;4994320;28;20108;-89
2022/07/06 11:12:18;;;;;;;5.63;3.25;;;;;;;35.36;24.13;100554.53;5009576;28;20037;-87
2022/07/06 11:14:46;;;;;;;10.90;3.70;;;;;;;34.88;24.65;100552.69;5013475;28;20041;-90
2022/07/06 11:17:28;;;;;;;8.70;3.95;;;;;;;34.75;25.86;100543.34;5017257;28;20088;-88
2022/07/06 11:19:58;;;;;;;8.00;3.33;;;;;;;34.77;25.29;100545.78;5002178;28;20037;-87
2022/07/06 11:22:31;;;;;;;6.75;3.33;;;;;;;34.15;26.55;100552.34;5003948;28;20038;-87
2022/07/06 11:25:01;;;;;;;5.57;3.75;;;;;;;33.87;27.00;100540.56;5008815;28;20065;-87
2022/07/06 11:27:27;;;;;;;15.93;8.05;;;;;;;34.14;27.28;100557.13;5031965;28;20118;-86
2022/07/06 11:29:53;;;;;;;6.88;3.40;;;;;;;34.01;26.26;100541.28;5012993;28;20132;-88
2022/07/06 11:32:23;;;;;;;7.90;3.55;;;;;;;33.82;26.73;100541.50;5036342;28;20034;-87
2022/07/06 11:34:50;;;;;;;7.85;4.35;;;;;;;34.11;26.73;100538.22;5026469;28;20104;-89
2022/07/06 11:37:17;;;;;;;8.82;3.10;;;;;;;34.11;25.47;100538.22;5030440;28;20557;-87